sensor_id;sensor_type;location;lat;lon;timestamp;P1;durP1;ratioP1;P2;durP2;ratioP2
1577;SDS011;57623;53.608;10.004;2023-03-04T00:00:04;5.60;;;2.90;;
1577;SDS011;57623;53.608;10.004;2023-03-04T00:02:33;9.00;;;3.47;;
1577;SDS011;57623;53.608;10.004;2023-03-04T00:05:02;9.13;;;3.20;;
1577;SDS011;57623;53.608;10.004;2023-03-04T00:07:31;8.77;;;3.13;;
1577;SDS011;57623;53.608;10.004;2023-03-04T00:09:59;8.80;;;3.30;;
1577;SDS011;57623;53.608;10.004;2023-03-04T00:12:27;9.43;;;3.23;;
1577;SDS011;57623;53.608;10.004;2023-03-04T00:14:55;4.67;;;2.90;;
1577;SDS011;57623;53.608;10.004;2023-03-04T00:17:23;9.13;;;3.63;;
1577;SDS011;57623;53.608;10.004;2023-03-04T00:19:51;7.70;;;4.03;;
1577;SDS011;57623;53.608;10.004;2023-03-04T00:22:20;7.10;;;3.77;;
1577;SDS011;57623;53.608;10.004;2023-03-04T00:24:48;6.83;;;3.00;;
1577;SDS011;57623;53.608;10.004;2023-03-04T00:27:16;6.50;;;3.20;;
1577;SDS011;57623;53.608;10.004;2023-03-04T00:29:44;7.50;;;2.67;;
1577;SDS011;57623;53.608;10.004;2023-03-04T00:32:12;7.23;;;3.00;;
1577;SDS011;57623;53.608;10.004;2023-03-04T00:34:41;7.57;;;2.73;;
1577;SDS011;57623;53.608;10.004;2023-03-04T00:37:09;7.93;;;2.90;;
1577;SDS011;57623;53.608;10.004;2023-03-04T00:39:38;7.17;;;2.77;;
1577;SDS011;57623;53.608;10.004;2023-03-04T00:42:06;6.30;;;2.50;;
1577;SDS011;57623;53.608;10.004;2023-03-04T00:44:34;4.50;;;2.70;;
1577;SDS011;57623;53.608;10.004;2023-03-04T00:47:02;5.63;;;3.00;;
1577;SDS011;57623;53.608;10.004;2023-03-04T00:49:30;8.60;;;2.87;;
1577;SDS011;57623;53.608;10.004;2023-03-04T00:51:58;7.43;;;2.90;;
1577;SDS011;57623;53.608;10.004;2023-03-04T00:54:26;5.70;;;2.40;;
1577;SDS011;57623;53.608;10.004;2023-03-04T00:56:55;6.43;;;3.40;;
1577;SDS011;57623;53.608;10.004;2023-03-04T00:59:23;7.43;;;2.60;;
1577;SDS011;57623;53.608;10.004;2023-03-04T01:01:51;5.20;;;2.67;;
1577;SDS011;57623;53.608;10.004;2023-03-04T01:04:19;6.90;;;2.53;;
1577;SDS011;57623;53.608;10.004;2023-03-04T01:06:47;5.77;;;2.03;;
1577;SDS011;57623;53.608;10.004;2023-03-04T01:09:15;4.53;;;1.83;;
1577;SDS011;57623;53.608;10.004;2023-03-04T01:11:43;5.17;;;2.00;;
1577;SDS011;57623;53.608;10.004;2023-03-04T01:14:12;6.13;;;1.90;;
1577;SDS011;57623;53.608;10.004;2023-03-04T01:16:40;7.23;;;1.90;;
1577;SDS011;57623;53.608;10.004;2023-03-04T01:19:08;5.13;;;2.13;;
1577;SDS011;57623;53.608;10.004;2023-03-04T01:21:36;4.83;;;1.70;;
1577;SDS011;57623;53.608;10.004;2023-03-04T01:24:04;4.87;;;1.77;;
1577;SDS011;57623;53.608;10.004;2023-03-04T01:26:32;5.17;;;1.60;;
1577;SDS011;57623;53.608;10.004;2023-03-04T01:29:01;3.93;;;1.30;;
1577;SDS011;57623;53.608;10.004;2023-03-04T01:31:30;5.00;;;1.80;;
1577;SDS011;57623;53.608;10.004;2023-03-04T01:33:58;3.70;;;1.53;;
1577;SDS011;57623;53.608;10.004;2023-03-04T01:36:26;2.80;;;1.37;;
1577;SDS011;57623;53.608;10.004;2023-03-04T01:38:54;11.00;;;2.07;;
1577;SDS011;57623;53.608;10.004;2023-03-04T01:41:23;4.77;;;1.60;;
1577;SDS011;57623;53.608;10.004;2023-03-04T01:43:53;4.57;;;1.40;;
1577;SDS011;57623;53.608;10.004;2023-03-04T01:46:22;7.17;;;1.80;;
1577;SDS011;57623;53.608;10.004;2023-03-04T01:48:52;6.00;;;1.70;;
1577;SDS011;57623;53.608;10.004;2023-03-04T01:51:20;6.73;;;1.50;;
1577;SDS011;57623;53.608;10.004;2023-03-04T01:53:49;4.90;;;1.40;;
1577;SDS011;57623;53.608;10.004;2023-03-04T01:56:21;7.40;;;1.80;;
1577;SDS011;57623;53.608;10.004;2023-03-04T02:01:44;4.17;;;1.30;;
1577;SDS011;57623;53.608;10.004;2023-03-04T02:04:16;5.20;;;1.53;;
1577;SDS011;57623;53.608;10.004;2023-03-04T02:06:45;5.37;;;1.93;;
1577;SDS011;57623;53.608;10.004;2023-03-04T02:09:14;3.80;;;1.30;;
1577;SDS011;57623;53.608;10.004;2023-03-04T02:11:43;3.87;;;1.40;;
1577;SDS011;57623;53.608;10.004;2023-03-04T02:14:11;4.50;;;1.60;;
1577;SDS011;57623;53.608;10.004;2023-03-04T02:16:41;5.13;;;1.60;;
1577;SDS011;57623;53.608;10.004;2023-03-04T02:19:11;5.70;;;1.87;;
1577;SDS011;57623;53.608;10.004;2023-03-04T02:21:47;5.13;;;1.60;;
1577;SDS011;57623;53.608;10.004;2023-03-04T02:24:17;8.10;;;1.90;;
1577;SDS011;57623;53.608;10.004;2023-03-04T02:26:53;6.73;;;1.77;;
1577;SDS011;57623;53.608;10.004;2023-03-04T02:29:21;2.67;;;1.50;;
1577;SDS011;57623;53.608;10.004;2023-03-04T02:31:50;4.57;;;1.70;;
1577;SDS011;57623;53.608;10.004;2023-03-04T02:34:20;5.30;;;1.63;;
1577;SDS011;57623;53.608;10.004;2023-03-04T02:36:50;5.80;;;1.60;;
1577;SDS011;57623;53.608;10.004;2023-03-04T02:39:24;5.57;;;1.70;;
1577;SDS011;57623;53.608;10.004;2023-03-04T02:41:58;5.80;;;2.00;;
1577;SDS011;57623;53.608;10.004;2023-03-04T02:44:27;6.07;;;1.77;;
1577;SDS011;57623;53.608;10.004;2023-03-04T02:46:57;4.20;;;1.60;;
1577;SDS011;57623;53.608;10.004;2023-03-04T02:49:25;5.47;;;1.87;;
1577;SDS011;57623;53.608;10.004;2023-03-04T02:51:57;5.00;;;1.70;;
1577;SDS011;57623;53.608;10.004;2023-03-04T02:54:27;4.47;;;1.67;;
1577;SDS011;57623;53.608;10.004;2023-03-04T02:56:56;8.30;;;2.27;;
1577;SDS011;57623;53.608;10.004;2023-03-04T02:59:26;5.53;;;2.00;;
1577;SDS011;57623;53.608;10.004;2023-03-04T03:01:55;8.03;;;2.10;;
1577;SDS011;57623;53.608;10.004;2023-03-04T03:04:23;6.10;;;1.80;;
1577;SDS011;57623;53.608;10.004;2023-03-04T03:06:52;3.57;;;1.83;;
1577;SDS011;57623;53.608;10.004;2023-03-04T03:09:20;3.10;;;1.90;;
1577;SDS011;57623;53.608;10.004;2023-03-04T03:11:48;5.03;;;2.50;;
1577;SDS011;57623;53.608;10.004;2023-03-04T03:14:18;4.13;;;2.27;;
1577;SDS011;57623;53.608;10.004;2023-03-04T03:16:46;7.13;;;2.57;;
1577;SDS011;57623;53.608;10.004;2023-03-04T03:19:14;4.97;;;1.80;;
1577;SDS011;57623;53.608;10.004;2023-03-04T03:21:42;6.13;;;2.40;;
1577;SDS011;57623;53.608;10.004;2023-03-04T03:24:10;8.50;;;2.10;;
1577;SDS011;57623;53.608;10.004;2023-03-04T03:26:37;4.53;;;2.00;;
1577;SDS011;57623;53.608;10.004;2023-03-04T03:29:06;5.47;;;1.90;;
1577;SDS011;57623;53.608;10.004;2023-03-04T03:31:35;5.40;;;2.00;;
1577;SDS011;57623;53.608;10.004;2023-03-04T03:34:03;4.17;;;2.07;;
1577;SDS011;57623;53.608;10.004;2023-03-04T03:36:31;4.40;;;2.40;;
1577;SDS011;57623;53.608;10.004;2023-03-04T03:38:59;6.03;;;1.80;;
1577;SDS011;57623;53.608;10.004;2023-03-04T03:41:27;7.13;;;2.10;;
1577;SDS011;57623;53.608;10.004;2023-03-04T03:43:55;6.67;;;2.07;;
1577;SDS011;57623;53.608;10.004;2023-03-04T03:46:23;3.90;;;2.17;;
1577;SDS011;57623;53.608;10.004;2023-03-04T03:48:53;5.10;;;1.83;;
1577;SDS011;57623;53.608;10.004;2023-03-04T03:51:21;4.37;;;1.70;;
1577;SDS011;57623;53.608;10.004;2023-03-04T03:53:49;4.77;;;2.00;;
1577;SDS011;57623;53.608;10.004;2023-03-04T03:56:17;4.97;;;2.30;;
1577;SDS011;57623;53.608;10.004;2023-03-04T03:58:45;8.27;;;2.03;;
1577;SDS011;57623;53.608;10.004;2023-03-04T04:01:13;5.80;;;2.07;;
1577;SDS011;57623;53.608;10.004;2023-03-04T04:03:41;6.00;;;1.97;;
1577;SDS011;57623;53.608;10.004;2023-03-04T04:06:11;5.07;;;1.90;;
1577;SDS011;57623;53.608;10.004;2023-03-04T04:08:39;6.70;;;1.77;;
1577;SDS011;57623;53.608;10.004;2023-03-04T04:11:07;11.50;;;1.80;;
1577;SDS011;57623;53.608;10.004;2023-03-04T04:13:36;6.40;;;1.93;;
1577;SDS011;57623;53.608;10.004;2023-03-04T04:16:05;4.70;;;1.90;;
1577;SDS011;57623;53.608;10.004;2023-03-04T04:18:33;4.57;;;1.83;;
1577;SDS011;57623;53.608;10.004;2023-03-04T04:21:02;6.77;;;2.40;;
1577;SDS011;57623;53.608;10.004;2023-03-04T04:23:32;9.63;;;2.33;;
1577;SDS011;57623;53.608;10.004;2023-03-04T04:26:00;8.77;;;2.30;;
1577;SDS011;57623;53.608;10.004;2023-03-04T04:28:29;3.97;;;1.90;;
1577;SDS011;57623;53.608;10.004;2023-03-04T04:30:57;9.40;;;2.93;;
1577;SDS011;57623;53.608;10.004;2023-03-04T04:33:25;5.80;;;1.90;;
1577;SDS011;57623;53.608;10.004;2023-03-04T04:35:53;7.37;;;2.40;;
1577;SDS011;57623;53.608;10.004;2023-03-04T04:38:21;9.53;;;2.67;;
1577;SDS011;57623;53.608;10.004;2023-03-04T04:40:51;5.10;;;2.20;;
1577;SDS011;57623;53.608;10.004;2023-03-04T04:43:19;9.50;;;2.03;;
1577;SDS011;57623;53.608;10.004;2023-03-04T04:45:47;6.00;;;2.00;;
1577;SDS011;57623;53.608;10.004;2023-03-04T04:48:15;4.30;;;1.83;;
1577;SDS011;57623;53.608;10.004;2023-03-04T04:50:43;8.77;;;2.87;;
1577;SDS011;57623;53.608;10.004;2023-03-04T04:53:11;6.07;;;2.23;;
1577;SDS011;57623;53.608;10.004;2023-03-04T04:55:39;7.10;;;2.73;;
1577;SDS011;57623;53.608;10.004;2023-03-04T04:58:08;8.03;;;2.50;;
1577;SDS011;57623;53.608;10.004;2023-03-04T05:00:36;5.70;;;2.03;;
1577;SDS011;57623;53.608;10.004;2023-03-04T05:03:04;4.63;;;2.10;;
1577;SDS011;57623;53.608;10.004;2023-03-04T05:05:32;7.47;;;2.17;;
1577;SDS011;57623;53.608;10.004;2023-03-04T05:08:00;5.17;;;1.80;;
1577;SDS011;57623;53.608;10.004;2023-03-04T05:10:28;7.50;;;1.90;;
1577;SDS011;57623;53.608;10.004;2023-03-04T05:12:59;9.80;;;2.27;;
1577;SDS011;57623;53.608;10.004;2023-03-04T05:15:28;5.10;;;2.40;;
1577;SDS011;57623;53.608;10.004;2023-03-04T05:17:56;7.97;;;2.43;;
1577;SDS011;57623;53.608;10.004;2023-03-04T05:20:24;4.80;;;2.00;;
1577;SDS011;57623;53.608;10.004;2023-03-04T05:22:53;6.17;;;2.53;;
1577;SDS011;57623;53.608;10.004;2023-03-04T05:25:21;7.80;;;2.00;;
1577;SDS011;57623;53.608;10.004;2023-03-04T05:27:49;5.27;;;1.93;;
1577;SDS011;57623;53.608;10.004;2023-03-04T05:30:17;4.37;;;2.07;;
1577;SDS011;57623;53.608;10.004;2023-03-04T05:32:46;6.40;;;1.87;;
1577;SDS011;57623;53.608;10.004;2023-03-04T05:35:14;5.87;;;2.13;;
1577;SDS011;57623;53.608;10.004;2023-03-04T05:37:42;8.10;;;2.30;;
1577;SDS011;57623;53.608;10.004;2023-03-04T05:40:11;6.03;;;2.40;;
1577;SDS011;57623;53.608;10.004;2023-03-04T05:42:39;7.33;;;2.13;;
1577;SDS011;57623;53.608;10.004;2023-03-04T05:45:07;4.87;;;2.67;;
1577;SDS011;57623;53.608;10.004;2023-03-04T05:47:36;5.50;;;2.10;;
1577;SDS011;57623;53.608;10.004;2023-03-04T05:50:06;5.13;;;2.53;;
1577;SDS011;57623;53.608;10.004;2023-03-04T05:52:34;7.53;;;2.33;;
1577;SDS011;57623;53.608;10.004;2023-03-04T05:55:02;9.70;;;3.63;;
1577;SDS011;57623;53.608;10.004;2023-03-04T05:57:31;6.93;;;2.87;;
1577;SDS011;57623;53.608;10.004;2023-03-04T05:59:59;9.43;;;2.70;;
1577;SDS011;57623;53.608;10.004;2023-03-04T06:02:27;10.93;;;2.90;;
1577;SDS011;57623;53.608;10.004;2023-03-04T06:04:54;7.40;;;2.50;;
1577;SDS011;57623;53.608;10.004;2023-03-04T06:07:24;7.47;;;2.83;;
1577;SDS011;57623;53.608;10.004;2023-03-04T06:09:52;9.57;;;2.80;;
1577;SDS011;57623;53.608;10.004;2023-03-04T06:12:20;11.50;;;3.27;;
1577;SDS011;57623;53.608;10.004;2023-03-04T06:14:48;9.97;;;3.27;;
1577;SDS011;57623;53.608;10.004;2023-03-04T06:17:16;13.83;;;2.83;;
1577;SDS011;57623;53.608;10.004;2023-03-04T06:19:44;14.00;;;3.50;;
1577;SDS011;57623;53.608;10.004;2023-03-04T06:22:13;11.00;;;3.60;;
1577;SDS011;57623;53.608;10.004;2023-03-04T06:24:44;13.17;;;3.27;;
1577;SDS011;57623;53.608;10.004;2023-03-04T06:27:12;10.20;;;3.07;;
1577;SDS011;57623;53.608;10.004;2023-03-04T06:29:41;10.07;;;3.00;;
1577;SDS011;57623;53.608;10.004;2023-03-04T06:32:09;11.60;;;3.47;;
1577;SDS011;57623;53.608;10.004;2023-03-04T06:34:37;13.30;;;2.70;;
1577;SDS011;57623;53.608;10.004;2023-03-04T06:37:05;8.63;;;2.70;;
1577;SDS011;57623;53.608;10.004;2023-03-04T06:39:33;10.20;;;3.00;;
1577;SDS011;57623;53.608;10.004;2023-03-04T06:42:03;9.50;;;2.80;;
1577;SDS011;57623;53.608;10.004;2023-03-04T06:44:31;10.00;;;2.30;;
1577;SDS011;57623;53.608;10.004;2023-03-04T06:46:59;12.80;;;3.23;;
1577;SDS011;57623;53.608;10.004;2023-03-04T06:49:27;9.00;;;2.47;;
1577;SDS011;57623;53.608;10.004;2023-03-04T06:51:55;11.10;;;2.63;;
1577;SDS011;57623;53.608;10.004;2023-03-04T06:54:23;9.93;;;2.53;;
1577;SDS011;57623;53.608;10.004;2023-03-04T06:56:54;11.30;;;2.73;;
1577;SDS011;57623;53.608;10.004;2023-03-04T06:59:23;6.70;;;2.00;;
1577;SDS011;57623;53.608;10.004;2023-03-04T07:01:51;8.93;;;2.30;;
1577;SDS011;57623;53.608;10.004;2023-03-04T07:04:19;8.97;;;2.43;;
1577;SDS011;57623;53.608;10.004;2023-03-04T07:06:48;7.87;;;2.73;;
1577;SDS011;57623;53.608;10.004;2023-03-04T07:09:16;9.00;;;2.10;;
1577;SDS011;57623;53.608;10.004;2023-03-04T07:11:44;9.97;;;2.40;;
1577;SDS011;57623;53.608;10.004;2023-03-04T07:14:12;11.00;;;2.67;;
1577;SDS011;57623;53.608;10.004;2023-03-04T07:16:41;9.33;;;2.37;;
1577;SDS011;57623;53.608;10.004;2023-03-04T07:19:09;8.70;;;2.20;;
1577;SDS011;57623;53.608;10.004;2023-03-04T07:21:37;9.73;;;3.20;;
1577;SDS011;57623;53.608;10.004;2023-03-04T07:24:05;5.10;;;2.00;;
1577;SDS011;57623;53.608;10.004;2023-03-04T07:26:33;7.33;;;2.70;;
1577;SDS011;57623;53.608;10.004;2023-03-04T07:29:03;7.60;;;3.20;;
1577;SDS011;57623;53.608;10.004;2023-03-04T07:31:32;12.27;;;3.53;;
1577;SDS011;57623;53.608;10.004;2023-03-04T07:34:03;8.90;;;2.70;;
1577;SDS011;57623;53.608;10.004;2023-03-04T07:36:34;7.47;;;2.13;;
1577;SDS011;57623;53.608;10.004;2023-03-04T07:39:03;7.57;;;2.63;;
1577;SDS011;57623;53.608;10.004;2023-03-04T07:41:32;10.00;;;3.33;;
1577;SDS011;57623;53.608;10.004;2023-03-04T07:44:02;7.40;;;2.53;;
1577;SDS011;57623;53.608;10.004;2023-03-04T07:46:31;10.00;;;3.07;;
1577;SDS011;57623;53.608;10.004;2023-03-04T07:48:59;11.90;;;3.10;;
1577;SDS011;57623;53.608;10.004;2023-03-04T07:51:28;12.57;;;2.80;;
1577;SDS011;57623;53.608;10.004;2023-03-04T07:53:57;11.20;;;3.83;;
1577;SDS011;57623;53.608;10.004;2023-03-04T07:56:27;7.60;;;2.80;;
1577;SDS011;57623;53.608;10.004;2023-03-04T07:58:57;10.40;;;3.20;;
1577;SDS011;57623;53.608;10.004;2023-03-04T08:01:26;9.77;;;2.60;;
1577;SDS011;57623;53.608;10.004;2023-03-04T08:03:55;13.77;;;3.17;;
1577;SDS011;57623;53.608;10.004;2023-03-04T08:06:24;15.20;;;3.40;;
1577;SDS011;57623;53.608;10.004;2023-03-04T08:08:56;12.70;;;3.20;;
1577;SDS011;57623;53.608;10.004;2023-03-04T08:11:26;8.80;;;2.37;;
1577;SDS011;57623;53.608;10.004;2023-03-04T08:13:54;8.63;;;2.83;;
1577;SDS011;57623;53.608;10.004;2023-03-04T08:16:23;8.80;;;3.03;;
1577;SDS011;57623;53.608;10.004;2023-03-04T08:18:52;9.77;;;3.40;;
1577;SDS011;57623;53.608;10.004;2023-03-04T08:21:22;6.30;;;2.50;;
1577;SDS011;57623;53.608;10.004;2023-03-04T08:23:51;9.57;;;2.90;;
1577;SDS011;57623;53.608;10.004;2023-03-04T08:26:22;14.37;;;3.13;;
1577;SDS011;57623;53.608;10.004;2023-03-04T08:28:52;16.37;;;3.33;;
1577;SDS011;57623;53.608;10.004;2023-03-04T08:31:21;10.83;;;3.33;;
1577;SDS011;57623;53.608;10.004;2023-03-04T08:33:50;7.77;;;3.00;;
1577;SDS011;57623;53.608;10.004;2023-03-04T08:36:18;10.27;;;3.23;;
1577;SDS011;57623;53.608;10.004;2023-03-04T08:38:47;10.53;;;2.97;;
1577;SDS011;57623;53.608;10.004;2023-03-04T08:41:15;11.10;;;3.30;;
1577;SDS011;57623;53.608;10.004;2023-03-04T08:43:44;12.20;;;3.40;;
1577;SDS011;57623;53.608;10.004;2023-03-04T08:46:12;11.60;;;2.77;;
1577;SDS011;57623;53.608;10.004;2023-03-04T08:48:40;12.10;;;3.43;;
1577;SDS011;57623;53.608;10.004;2023-03-04T08:51:08;12.67;;;3.43;;
1577;SDS011;57623;53.608;10.004;2023-03-04T08:53:37;8.30;;;3.17;;
1577;SDS011;57623;53.608;10.004;2023-03-04T08:56:06;10.70;;;3.10;;
1577;SDS011;57623;53.608;10.004;2023-03-04T08:58:35;11.60;;;2.80;;
1577;SDS011;57623;53.608;10.004;2023-03-04T09:01:06;13.23;;;3.73;;
1577;SDS011;57623;53.608;10.004;2023-03-04T09:03:34;9.60;;;3.00;;
1577;SDS011;57623;53.608;10.004;2023-03-04T09:06:03;10.90;;;3.63;;
1577;SDS011;57623;53.608;10.004;2023-03-04T09:08:32;17.77;;;3.50;;
1577;SDS011;57623;53.608;10.004;2023-03-04T09:11:01;13.70;;;3.80;;
1577;SDS011;57623;53.608;10.004;2023-03-04T09:13:30;12.97;;;3.50;;
1577;SDS011;57623;53.608;10.004;2023-03-04T09:15:58;13.20;;;4.53;;
1577;SDS011;57623;53.608;10.004;2023-03-04T09:18:27;10.53;;;2.90;;
1577;SDS011;57623;53.608;10.004;2023-03-04T09:20:56;10.20;;;3.83;;
1577;SDS011;57623;53.608;10.004;2023-03-04T09:23:23;12.53;;;3.83;;
1577;SDS011;57623;53.608;10.004;2023-03-04T09:25:51;9.73;;;3.67;;
1577;SDS011;57623;53.608;10.004;2023-03-04T09:28:19;10.40;;;3.40;;
1577;SDS011;57623;53.608;10.004;2023-03-04T09:30:47;8.90;;;2.83;;
1577;SDS011;57623;53.608;10.004;2023-03-04T09:33:16;13.83;;;4.40;;
1577;SDS011;57623;53.608;10.004;2023-03-04T09:35:46;12.73;;;3.10;;
1577;SDS011;57623;53.608;10.004;2023-03-04T09:38:15;12.73;;;3.30;;
1577;SDS011;57623;53.608;10.004;2023-03-04T09:40:43;11.63;;;3.00;;
1577;SDS011;57623;53.608;10.004;2023-03-04T09:43:17;8.00;;;2.83;;
1577;SDS011;57623;53.608;10.004;2023-03-04T09:45:48;12.77;;;3.43;;
1577;SDS011;57623;53.608;10.004;2023-03-04T09:48:19;11.10;;;3.23;;
1577;SDS011;57623;53.608;10.004;2023-03-04T09:50:54;11.77;;;3.67;;
1577;SDS011;57623;53.608;10.004;2023-03-04T09:53:39;11.40;;;3.10;;
1577;SDS011;57623;53.608;10.004;2023-03-04T09:56:15;13.70;;;3.40;;
1577;SDS011;57623;53.608;10.004;2023-03-04T09:58:46;10.83;;;3.37;;
1577;SDS011;57623;53.608;10.004;2023-03-04T10:01:25;13.83;;;5.40;;
1577;SDS011;57623;53.608;10.004;2023-03-04T10:03:58;10.37;;;3.03;;
1577;SDS011;57623;53.608;10.004;2023-03-04T10:06:33;9.70;;;2.90;;
1577;SDS011;57623;53.608;10.004;2023-03-04T10:09:01;13.50;;;4.87;;
1577;SDS011;57623;53.608;10.004;2023-03-04T10:11:32;10.00;;;3.50;;
1577;SDS011;57623;53.608;10.004;2023-03-04T10:14:15;8.63;;;3.37;;
1577;SDS011;57623;53.608;10.004;2023-03-04T10:16:55;13.07;;;3.63;;
1577;SDS011;57623;53.608;10.004;2023-03-04T10:19:28;13.53;;;5.40;;
1577;SDS011;57623;53.608;10.004;2023-03-04T10:22:02;11.40;;;3.27;;
1577;SDS011;57623;53.608;10.004;2023-03-04T10:24:43;9.70;;;3.10;;
1577;SDS011;57623;53.608;10.004;2023-03-04T10:27:13;13.90;;;3.13;;
1577;SDS011;57623;53.608;10.004;2023-03-04T10:29:44;13.00;;;3.87;;
1577;SDS011;57623;53.608;10.004;2023-03-04T10:32:14;12.90;;;2.60;;
1577;SDS011;57623;53.608;10.004;2023-03-04T10:34:44;8.30;;;3.20;;
1577;SDS011;57623;53.608;10.004;2023-03-04T10:37:13;14.33;;;3.50;;
1577;SDS011;57623;53.608;10.004;2023-03-04T10:39:42;9.87;;;3.10;;
1577;SDS011;57623;53.608;10.004;2023-03-04T10:42:27;10.27;;;2.87;;
1577;SDS011;57623;53.608;10.004;2023-03-04T10:45:03;9.50;;;3.30;;
1577;SDS011;57623;53.608;10.004;2023-03-04T10:47:50;11.67;;;3.80;;
1577;SDS011;57623;53.608;10.004;2023-03-04T10:50:23;10.90;;;4.00;;
1577;SDS011;57623;53.608;10.004;2023-03-04T10:52:54;10.40;;;3.00;;
1577;SDS011;57623;53.608;10.004;2023-03-04T10:55:23;11.87;;;3.40;;
1577;SDS011;57623;53.608;10.004;2023-03-04T10:57:54;11.33;;;3.23;;
1577;SDS011;57623;53.608;10.004;2023-03-04T11:00:28;12.03;;;3.67;;
1577;SDS011;57623;53.608;10.004;2023-03-04T11:08:56;7.33;;;2.70;;
1577;SDS011;57623;53.608;10.004;2023-03-04T11:11:27;11.30;;;3.13;;
1577;SDS011;57623;53.608;10.004;2023-03-04T11:14:00;11.23;;;3.87;;
1577;SDS011;57623;53.608;10.004;2023-03-04T11:16:34;9.53;;;3.03;;
1577;SDS011;57623;53.608;10.004;2023-03-04T11:19:03;8.23;;;2.93;;
1577;SDS011;57623;53.608;10.004;2023-03-04T11:21:38;8.73;;;3.00;;
1577;SDS011;57623;53.608;10.004;2023-03-04T11:24:10;14.33;;;4.20;;
1577;SDS011;57623;53.608;10.004;2023-03-04T11:26:55;8.17;;;2.90;;
1577;SDS011;57623;53.608;10.004;2023-03-04T11:29:27;11.00;;;3.17;;
1577;SDS011;57623;53.608;10.004;2023-03-04T11:32:00;8.83;;;3.23;;
1577;SDS011;57623;53.608;10.004;2023-03-04T11:34:36;10.33;;;3.63;;
1577;SDS011;57623;53.608;10.004;2023-03-04T11:37:07;10.37;;;2.97;;
1577;SDS011;57623;53.608;10.004;2023-03-04T11:39:43;9.10;;;2.70;;
1577;SDS011;57623;53.608;10.004;2023-03-04T11:42:17;9.43;;;3.57;;
1577;SDS011;57623;53.608;10.004;2023-03-04T11:44:52;12.30;;;3.17;;
1577;SDS011;57623;53.608;10.004;2023-03-04T11:47:30;8.03;;;3.43;;
1577;SDS011;57623;53.608;10.004;2023-03-04T11:50:13;12.27;;;3.40;;
1577;SDS011;57623;53.608;10.004;2023-03-04T11:55:49;9.60;;;2.80;;
1577;SDS011;57623;53.608;10.004;2023-03-04T11:58:34;9.57;;;3.07;;
1577;SDS011;57623;53.608;10.004;2023-03-04T12:01:12;10.10;;;2.90;;
1577;SDS011;57623;53.608;10.004;2023-03-04T12:03:51;11.57;;;3.00;;
1577;SDS011;57623;53.608;10.004;2023-03-04T12:06:30;6.27;;;3.17;;
1577;SDS011;57623;53.608;10.004;2023-03-04T12:09:07;9.60;;;2.77;;
1577;SDS011;57623;53.608;10.004;2023-03-04T12:12:00;8.30;;;2.93;;
1577;SDS011;57623;53.608;10.004;2023-03-04T12:14:38;8.80;;;3.10;;
1577;SDS011;57623;53.608;10.004;2023-03-04T12:23:01;13.50;;;3.20;;
1577;SDS011;57623;53.608;10.004;2023-03-04T12:25:38;12.83;;;2.90;;
1577;SDS011;57623;53.608;10.004;2023-03-04T12:28:19;11.23;;;3.17;;
1577;SDS011;57623;53.608;10.004;2023-03-04T12:31:06;12.10;;;4.30;;
1577;SDS011;57623;53.608;10.004;2023-03-04T12:33:48;12.33;;;3.77;;
1577;SDS011;57623;53.608;10.004;2023-03-04T12:36:26;11.60;;;3.20;;
1577;SDS011;57623;53.608;10.004;2023-03-04T12:39:07;11.23;;;3.30;;
1577;SDS011;57623;53.608;10.004;2023-03-04T12:41:47;6.77;;;2.67;;
1577;SDS011;57623;53.608;10.004;2023-03-04T12:44:25;13.43;;;3.80;;
1577;SDS011;57623;53.608;10.004;2023-03-04T12:47:09;12.67;;;3.50;;
1577;SDS011;57623;53.608;10.004;2023-03-04T12:49:48;9.77;;;3.50;;
1577;SDS011;57623;53.608;10.004;2023-03-04T12:52:28;8.23;;;2.67;;
1577;SDS011;57623;53.608;10.004;2023-03-04T12:55:08;5.33;;;2.33;;
1577;SDS011;57623;53.608;10.004;2023-03-04T12:57:38;9.17;;;2.40;;
1577;SDS011;57623;53.608;10.004;2023-03-04T13:00:15;7.07;;;2.60;;
1577;SDS011;57623;53.608;10.004;2023-03-04T13:02:54;7.10;;;2.57;;
1577;SDS011;57623;53.608;10.004;2023-03-04T13:05:39;8.33;;;2.70;;
1577;SDS011;57623;53.608;10.004;2023-03-04T13:08:31;6.77;;;3.20;;
1577;SDS011;57623;53.608;10.004;2023-03-04T13:14:21;7.70;;;3.20;;
1577;SDS011;57623;53.608;10.004;2023-03-04T13:17:01;8.70;;;2.83;;
1577;SDS011;57623;53.608;10.004;2023-03-04T13:19:45;6.77;;;3.00;;
1577;SDS011;57623;53.608;10.004;2023-03-04T13:22:29;8.73;;;2.97;;
1577;SDS011;57623;53.608;10.004;2023-03-04T13:25:25;7.37;;;2.80;;
1577;SDS011;57623;53.608;10.004;2023-03-04T13:28:23;5.73;;;3.13;;
1577;SDS011;57623;53.608;10.004;2023-03-04T13:33:59;6.93;;;2.70;;
1577;SDS011;57623;53.608;10.004;2023-03-04T13:39:31;9.20;;;3.27;;
1577;SDS011;57623;53.608;10.004;2023-03-04T13:42:02;5.50;;;2.60;;
1577;SDS011;57623;53.608;10.004;2023-03-04T13:44:32;10.90;;;3.17;;
1577;SDS011;57623;53.608;10.004;2023-03-04T13:47:39;10.37;;;2.80;;
1577;SDS011;57623;53.608;10.004;2023-03-04T13:50:26;8.20;;;2.73;;
1577;SDS011;57623;53.608;10.004;2023-03-04T13:56:11;8.20;;;2.80;;
1577;SDS011;57623;53.608;10.004;2023-03-04T13:58:51;9.73;;;3.03;;
1577;SDS011;57623;53.608;10.004;2023-03-04T14:01:32;7.70;;;2.57;;
1577;SDS011;57623;53.608;10.004;2023-03-04T14:04:08;5.10;;;2.47;;
1577;SDS011;57623;53.608;10.004;2023-03-04T14:06:41;8.03;;;2.30;;
1577;SDS011;57623;53.608;10.004;2023-03-04T14:09:11;8.00;;;2.20;;
1577;SDS011;57623;53.608;10.004;2023-03-04T14:11:40;8.97;;;3.50;;
1577;SDS011;57623;53.608;10.004;2023-03-04T14:14:10;8.97;;;2.90;;
1577;SDS011;57623;53.608;10.004;2023-03-04T14:16:44;7.43;;;2.77;;
1577;SDS011;57623;53.608;10.004;2023-03-04T14:19:15;10.67;;;2.77;;
1577;SDS011;57623;53.608;10.004;2023-03-04T14:21:49;8.93;;;3.90;;
1577;SDS011;57623;53.608;10.004;2023-03-04T14:24:18;6.73;;;4.30;;
1577;SDS011;57623;53.608;10.004;2023-03-04T14:26:47;7.67;;;3.00;;
1577;SDS011;57623;53.608;10.004;2023-03-04T14:29:20;6.60;;;2.53;;
1577;SDS011;57623;53.608;10.004;2023-03-04T14:31:50;6.70;;;2.60;;
1577;SDS011;57623;53.608;10.004;2023-03-04T14:34:22;7.10;;;2.30;;
1577;SDS011;57623;53.608;10.004;2023-03-04T14:36:53;8.77;;;2.90;;
1577;SDS011;57623;53.608;10.004;2023-03-04T14:39:22;9.17;;;2.80;;
1577;SDS011;57623;53.608;10.004;2023-03-04T14:41:52;7.90;;;2.67;;
1577;SDS011;57623;53.608;10.004;2023-03-04T14:44:25;7.63;;;2.90;;
1577;SDS011;57623;53.608;10.004;2023-03-04T14:47:05;9.83;;;2.67;;
1577;SDS011;57623;53.608;10.004;2023-03-04T14:49:37;9.27;;;2.30;;
1577;SDS011;57623;53.608;10.004;2023-03-04T14:54:59;12.63;;;2.93;;
1577;SDS011;57623;53.608;10.004;2023-03-04T14:57:28;8.37;;;2.77;;
1577;SDS011;57623;53.608;10.004;2023-03-04T15:02:51;6.10;;;2.37;;
1577;SDS011;57623;53.608;10.004;2023-03-04T15:05:23;5.93;;;2.00;;
1577;SDS011;57623;53.608;10.004;2023-03-04T15:07:54;11.30;;;2.97;;
1577;SDS011;57623;53.608;10.004;2023-03-04T15:10:25;11.50;;;2.57;;
1577;SDS011;57623;53.608;10.004;2023-03-04T15:12:55;11.10;;;3.27;;
1577;SDS011;57623;53.608;10.004;2023-03-04T15:15:30;11.93;;;2.90;;
1577;SDS011;57623;53.608;10.004;2023-03-04T15:18:13;8.77;;;3.37;;
1577;SDS011;57623;53.608;10.004;2023-03-04T15:20:53;6.97;;;2.30;;
1577;SDS011;57623;53.608;10.004;2023-03-04T15:23:23;4.00;;;2.33;;
1577;SDS011;57623;53.608;10.004;2023-03-04T15:25:51;7.40;;;3.03;;
1577;SDS011;57623;53.608;10.004;2023-03-04T15:28:21;8.10;;;2.57;;
1577;SDS011;57623;53.608;10.004;2023-03-04T15:30:50;10.20;;;3.27;;
1577;SDS011;57623;53.608;10.004;2023-03-04T15:33:19;8.90;;;3.07;;
1577;SDS011;57623;53.608;10.004;2023-03-04T15:35:50;7.43;;;2.53;;
1577;SDS011;57623;53.608;10.004;2023-03-04T15:38:23;7.93;;;2.87;;
1577;SDS011;57623;53.608;10.004;2023-03-04T15:40:51;7.40;;;2.43;;